createdAt,value
2023-05-21T00:01:21.715Z,100084.69
2023-05-21T00:03:54.467Z,100086.73
2023-05-21T00:06:26.650Z,100082.69
2023-05-21T00:08:58.577Z,100086.23
2023-05-21T00:11:30.818Z,100077.85
2023-05-21T00:14:03.035Z,100084.00
2023-05-21T00:16:35.090Z,100081.85
2023-05-21T00:19:08.404Z,100080.97
2023-05-21T00:21:40.220Z,100078.38
2023-05-21T00:24:12.083Z,100082.38
2023-05-21T00:26:43.969Z,100081.06
2023-05-21T00:29:15.896Z,100083.37
2023-05-21T00:31:48.107Z,100078.58
2023-05-21T00:34:20.280Z,100082.53
2023-05-21T00:36:53.698Z,100074.09
2023-05-21T00:39:25.678Z,100074.98
2023-05-21T00:41:57.747Z,100074.43
2023-05-21T00:44:31.386Z,100070.73
2023-05-21T00:47:03.924Z,100074.14
2023-05-21T00:49:36.017Z,100068.23
2023-05-21T00:52:08.281Z,100061.88
2023-05-21T00:54:40.152Z,100067.00
2023-05-21T00:57:12.220Z,100063.84
2023-05-21T00:59:44.006Z,100061.69
2023-05-21T01:02:18.749Z,100053.34
2023-05-21T01:04:50.980Z,100049.88
2023-05-21T01:07:23.574Z,100048.03
2023-05-21T01:09:55.253Z,100040.06
2023-05-21T01:12:27.064Z,100042.81
2023-05-21T01:15:00.770Z,100040.28
2023-05-21T01:17:34.529Z,100043.93
2023-05-21T01:20:10.692Z,100044.43
2023-05-21T01:22:56.078Z,100046.77
2023-05-21T01:25:28.965Z,100045.16
2023-05-21T01:28:00.896Z,100048.82
2023-05-21T01:30:33.081Z,100044.44
2023-05-21T01:33:07.394Z,100045.30
2023-05-21T01:35:43.260Z,100046.09
2023-05-21T01:38:26.383Z,100050.47
2023-05-21T01:41:03.223Z,100048.19
2023-05-21T01:43:40.385Z,100046.92
2023-05-21T01:46:14.780Z,100050.83
2023-05-21T01:48:46.610Z,100050.37
2023-05-21T01:51:18.347Z,100051.31
2023-05-21T01:53:50.371Z,100049.70
2023-05-21T01:56:23.816Z,100044.58
2023-05-21T01:58:59.992Z,100053.55
2023-05-21T02:01:32.203Z,100047.94
2023-05-21T02:04:04.102Z,100043.21
2023-05-21T02:06:38.729Z,100047.30
2023-05-21T02:09:10.886Z,100049.20
2023-05-21T02:11:42.790Z,100050.13
2023-05-21T02:14:14.607Z,100048.81
2023-05-21T02:16:47.301Z,100051.00
2023-05-21T02:19:19.857Z,100053.59
2023-05-21T02:21:52.345Z,100049.72
2023-05-21T02:24:24.664Z,100046.70
2023-05-21T02:26:56.476Z,100044.67
2023-05-21T02:29:28.315Z,100045.69
2023-05-21T02:32:00.320Z,100042.28
2023-05-21T02:34:33.266Z,100043.28
2023-05-21T02:37:05.151Z,100049.09
2023-05-21T02:39:37.556Z,100050.59
2023-05-21T02:42:09.454Z,100049.37
2023-05-21T02:44:41.930Z,100057.37
2023-05-21T02:47:14.084Z,100057.02
2023-05-21T02:49:47.039Z,100063.70
2023-05-21T02:52:19.808Z,100063.39
2023-05-21T02:54:52.770Z,100063.09
2023-05-21T02:57:25.064Z,100067.17
2023-05-21T02:59:56.878Z,100063.39
2023-05-21T03:02:28.831Z,100060.92
2023-05-21T03:05:01.001Z,100066.73
2023-05-21T03:07:33.364Z,100070.86
2023-05-21T03:10:06.070Z,100071.42
2023-05-21T03:12:38.318Z,100068.91
2023-05-21T03:15:11.278Z,100062.45
2023-05-21T03:17:44.732Z,100073.12
2023-05-21T03:20:18.515Z,100065.69
2023-05-21T03:22:50.408Z,100063.97
2023-05-21T03:25:24.544Z,100067.61
2023-05-21T03:27:56.964Z,100065.93
2023-05-21T03:30:44.517Z,100066.16
2023-05-21T03:33:27.247Z,100065.53
2023-05-21T03:35:59.133Z,100056.52
2023-05-21T03:38:33.762Z,100055.42
2023-05-21T03:41:07.370Z,100058.30
2023-05-21T03:43:39.494Z,100056.38
2023-05-21T03:46:11.413Z,100054.61
2023-05-21T03:49:01.451Z,100052.28
2023-05-21T03:51:34.610Z,100058.92
2023-05-21T03:54:06.364Z,100050.50
2023-05-21T03:56:39.014Z,100050.45
2023-05-21T03:59:10.860Z,100053.52
2023-05-21T04:01:42.910Z,100052.07
2023-05-21T04:04:16.311Z,100057.04
2023-05-21T04:06:48.405Z,100066.75
2023-05-21T04:09:20.409Z,100074.28
2023-05-21T04:11:52.495Z,100073.95
2023-05-21T04:14:24.784Z,100073.56
2023-05-21T04:16:57.048Z,100087.28
2023-05-21T04:19:29.118Z,100081.48
2023-05-21T04:22:01.242Z,100086.25
2023-05-21T04:24:33.791Z,100077.25
2023-05-21T04:27:09.058Z,100078.47
2023-05-21T04:29:42.526Z,100076.64
2023-05-21T04:32:15.374Z,100079.27
2023-05-21T04:34:47.388Z,100080.11
2023-05-21T04:37:19.157Z,100080.47
2023-05-21T04:39:50.992Z,100080.87
2023-05-21T04:42:24.380Z,100082.20
2023-05-21T04:44:56.514Z,100079.53
2023-05-21T04:47:30.532Z,100071.20
2023-05-21T04:50:05.173Z,100075.27
2023-05-21T04:52:38.535Z,100071.84
2023-05-21T04:55:10.730Z,100072.73
2023-05-21T04:57:42.667Z,100074.94
2023-05-21T05:00:15.025Z,100070.14
2023-05-21T05:02:47.477Z,100070.99
2023-05-21T05:05:19.762Z,100060.42
2023-05-21T05:07:51.816Z,100064.92
2023-05-21T05:10:24.164Z,100066.77
2023-05-21T05:12:56.575Z,100069.56
2023-05-21T05:15:28.719Z,100070.56
2023-05-21T05:18:02.240Z,100064.92
2023-05-21T05:20:34.179Z,100068.13
2023-05-21T05:23:06.034Z,100066.05
2023-05-21T05:25:38.397Z,100063.50
2023-05-21T05:28:10.893Z,100064.45
2023-05-21T05:30:42.901Z,100059.72
2023-05-21T05:33:16.466Z,100058.48
2023-05-21T05:35:48.841Z,100057.25
2023-05-21T05:38:20.924Z,100060.02
2023-05-21T05:40:52.802Z,100047.73
2023-05-21T05:43:26.887Z,100043.80
2023-05-21T05:46:00.316Z,100052.71
2023-05-21T05:48:33.019Z,100055.00
2023-05-21T05:51:06.425Z,100057.31
2023-05-21T05:53:38.894Z,100061.83
2023-05-21T05:56:10.976Z,100059.25
2023-05-21T05:58:43.152Z,100052.64
2023-05-21T06:01:16.642Z,100046.44
2023-05-21T06:03:48.533Z,100042.54
2023-05-21T06:06:21.694Z,100041.31
2023-05-21T06:08:53.979Z,100044.08
2023-05-21T06:11:26.186Z,100042.84
2023-05-21T06:13:59.990Z,100042.94
2023-05-21T06:16:32.069Z,100042.11
2023-05-21T06:19:03.994Z,100039.98
2023-05-21T06:21:35.890Z,100040.07
2023-05-21T06:24:08.494Z,100043.22
2023-05-21T06:26:40.371Z,100039.77
2023-05-21T06:29:14.251Z,100031.41
2023-05-21T06:31:46.554Z,100025.70
2023-05-21T06:34:18.522Z,100027.13
2023-05-21T06:36:50.533Z,100030.73
2023-05-21T06:39:22.797Z,100029.92
2023-05-21T06:41:55.185Z,100025.08
2023-05-21T06:44:47.021Z,100030.44
2023-05-21T06:47:21.152Z,100023.85
2023-05-21T06:49:53.727Z,100027.89
2023-05-21T06:52:26.904Z,100023.94
2023-05-21T06:54:58.918Z,100026.19
2023-05-21T06:57:33.723Z,100033.83
2023-05-21T07:00:07.027Z,100031.67
2023-05-21T07:02:41.414Z,100027.27
2023-05-21T07:05:13.440Z,100023.33
2023-05-21T07:07:46.417Z,100032.22
2023-05-21T07:10:18.412Z,100031.38
2023-05-21T07:12:52.106Z,100019.86
2023-05-21T07:15:25.339Z,100026.12
2023-05-21T07:17:57.634Z,100019.91
2023-05-21T07:20:29.472Z,100019.48
2023-05-21T07:23:03.319Z,100016.00
2023-05-21T07:25:36.936Z,100018.68
2023-05-21T07:28:09.092Z,100019.59
2023-05-21T07:30:41.826Z,100020.02
2023-05-21T07:33:15.425Z,100020.48
2023-05-21T07:35:47.597Z,100017.38
2023-05-21T07:38:19.414Z,100015.17
2023-05-21T07:40:51.620Z,100009.38
2023-05-21T07:43:23.493Z,100011.17
2023-05-21T07:45:55.359Z,100009.84
2023-05-21T07:48:27.192Z,100004.94
2023-05-21T07:51:04.193Z,100000.52
2023-05-21T07:53:37.063Z,100000.94
2023-05-21T07:56:10.977Z,100000.94
2023-05-21T07:58:44.361Z,100000.06
2023-05-21T08:01:17.459Z,99998.28
2023-05-21T08:03:49.721Z,99997.86
2023-05-21T08:06:24.001Z,99999.19
2023-05-21T08:08:55.898Z,99996.08
2023-05-21T08:11:28.876Z,100000.07
2023-05-21T08:14:00.964Z,99996.95
2023-05-21T08:16:35.126Z,99994.77
2023-05-21T08:19:06.979Z,99984.52
2023-05-21T08:21:39.100Z,99986.30
2023-05-21T08:24:11.372Z,99983.63
2023-05-21T08:26:44.946Z,99985.37
2023-05-21T08:29:16.907Z,99985.82
2023-05-21T08:31:49.603Z,99985.35
2023-05-21T08:34:21.508Z,99980.88
2023-05-21T08:36:55.006Z,99974.19
2023-05-21T08:39:28.446Z,99976.39
2023-05-21T08:42:04.916Z,99971.97
2023-05-21T08:44:38.350Z,99978.63
2023-05-21T08:47:10.161Z,99971.02
2023-05-21T08:49:43.200Z,99979.92
2023-05-21T08:52:15.082Z,99980.78
2023-05-21T08:54:48.321Z,99976.78
2023-05-21T08:57:20.694Z,99974.09
2023-05-21T08:59:52.839Z,99975.34
2023-05-21T09:02:26.504Z,99974.89
2023-05-21T09:04:59.319Z,99968.20
2023-05-21T09:07:31.904Z,99971.27
2023-05-21T09:10:14.948Z,99975.23
2023-05-21T09:12:48.672Z,99964.95
2023-05-21T09:15:21.046Z,99970.19
2023-05-21T09:17:53.020Z,99973.70
2023-05-21T09:20:28.527Z,99968.75
2023-05-21T09:23:04.251Z,99972.75
2023-05-21T09:25:37.104Z,99969.66
2023-05-21T09:28:17.918Z,99959.84
2023-05-21T09:30:53.626Z,99965.59
2023-05-21T09:33:29.579Z,99959.79
2023-05-21T09:36:02.282Z,99959.78
2023-05-21T09:38:35.537Z,99954.84
2023-05-21T09:41:07.522Z,99959.73
2023-05-21T09:43:39.982Z,99967.65
2023-05-21T09:46:12.357Z,99959.12
2023-05-21T09:48:44.750Z,99955.97
2023-05-21T09:51:22.184Z,99970.76
2023-05-21T09:53:58.526Z,100002.97
2023-05-21T09:56:32.696Z,99990.28
2023-05-21T09:59:05.293Z,99985.57
2023-05-21T10:01:38.965Z,99979.94
2023-05-21T10:04:10.807Z,99978.69
2023-05-21T10:06:44.688Z,99976.96
2023-05-21T10:09:17.158Z,99972.10
2023-05-21T10:11:48.881Z,99967.16
2023-05-21T10:14:24.126Z,99969.83
2023-05-21T10:16:56.314Z,99960.98
2023-05-21T10:19:28.168Z,99965.44
2023-05-21T10:21:59.849Z,99964.52
2023-05-21T10:24:32.107Z,99965.43
2023-05-21T10:27:04.994Z,99964.52
2023-05-21T10:29:37.282Z,99964.52
2023-05-21T10:32:09.235Z,99961.84
2023-05-21T10:34:41.894Z,99964.52
2023-05-21T10:37:14.347Z,99967.62
2023-05-21T10:39:47.234Z,99964.03
2023-05-21T10:42:33.943Z,99960.90
2023-05-21T10:45:15.864Z,99968.89
2023-05-21T10:48:03.622Z,99973.34
2023-05-21T10:51:03.633Z,99967.55
2023-05-21T10:53:44.493Z,99969.34
2023-05-21T10:56:24.666Z,99968.88
2023-05-21T10:59:05.521Z,99966.66
2023-05-21T11:01:38.997Z,99961.75
2023-05-21T11:04:12.427Z,99963.94
2023-05-21T11:06:49.233Z,99953.25
2023-05-21T11:09:21.053Z,99953.67
2023-05-21T11:12:01.146Z,99948.31
2023-05-21T11:14:42.191Z,99954.98
2023-05-21T11:17:16.783Z,99946.46
2023-05-21T11:19:50.601Z,99948.61
2023-05-21T11:22:27.208Z,99949.89
2023-05-21T11:25:02.084Z,99955.66
2023-05-21T11:27:38.997Z,99948.98
2023-05-21T11:30:16.549Z,99952.54
2023-05-21T11:33:12.484Z,99957.03
2023-05-21T11:35:51.694Z,99959.25
2023-05-21T11:38:23.859Z,99953.50
2023-05-21T11:40:55.862Z,99962.83
2023-05-21T11:43:28.225Z,99945.90
2023-05-21T11:46:00.107Z,99949.90
2023-05-21T11:48:32.739Z,99949.47
2023-05-21T11:51:04.782Z,99948.08
2023-05-21T11:53:38.569Z,99942.27
2023-05-21T11:56:12.153Z,99940.00
2023-05-21T11:58:44.294Z,99936.45
2023-05-21T12:01:28.692Z,99937.78
2023-05-21T12:04:00.597Z,99932.39
2023-05-21T12:06:34.655Z,99937.67
2023-05-21T12:09:06.385Z,99939.86
2023-05-21T12:11:45.209Z,99937.97
2023-05-21T12:14:17.025Z,99939.66
2023-05-21T12:16:48.861Z,99929.77
2023-05-21T12:19:20.989Z,99932.39
2023-05-21T12:21:52.929Z,99934.56
2023-05-21T12:24:24.736Z,99941.25
2023-05-21T12:26:58.097Z,99942.13
2023-05-21T12:29:31.925Z,99953.28
2023-05-21T12:32:04.782Z,99959.97
2023-05-21T12:34:49.916Z,99961.31
2023-05-21T12:37:30.207Z,99968.56
2023-05-21T12:40:08.777Z,99969.13
2023-05-21T12:42:40.856Z,99956.34
2023-05-21T12:45:13.217Z,99960.42
2023-05-21T12:47:49.996Z,99965.88
2023-05-21T12:50:22.440Z,99963.74
2023-05-21T12:52:58.226Z,99969.61
2023-05-21T12:55:30.525Z,99965.64
2023-05-21T12:58:08.881Z,99967.85
2023-05-21T13:00:44.207Z,99968.33
2023-05-21T13:03:16.693Z,99972.80
2023-05-21T13:05:48.539Z,99960.80
2023-05-21T13:08:20.418Z,99955.91
2023-05-21T13:10:52.202Z,99959.00
2023-05-21T13:13:24.817Z,99961.69
2023-05-21T13:15:56.773Z,99958.16
2023-05-21T13:18:28.477Z,99959.52
2023-05-21T13:21:00.666Z,99956.84
2023-05-21T13:23:33.083Z,99955.50
2023-05-21T13:26:05.268Z,99956.36
2023-05-21T13:28:38.239Z,99962.16
2023-05-21T13:31:12.369Z,99965.77
2023-05-21T13:33:44.410Z,99958.67
2023-05-21T13:36:16.234Z,99962.27
2023-05-21T13:38:48.016Z,99963.63
2023-05-21T13:41:19.836Z,99957.84
2023-05-21T13:43:52.019Z,99957.84
2023-05-21T13:46:23.910Z,99951.17
2023-05-21T13:48:56.047Z,99947.16
2023-05-21T13:51:38.581Z,99943.55
2023-05-21T13:54:01.450Z,99939.95
2023-05-21T13:56:34.026Z,99941.67
2023-05-21T13:59:05.945Z,99938.09
2023-05-21T14:01:38.004Z,99946.97
2023-05-21T14:04:09.727Z,99942.55
2023-05-21T14:06:42.356Z,99941.64
2023-05-21T14:09:14.277Z,99939.42
2023-05-21T14:11:46.908Z,99944.31
2023-05-21T14:14:19.226Z,99949.23
2023-05-21T14:16:51.605Z,99946.13
2023-05-21T14:19:23.810Z,99949.27
2023-05-21T14:21:56.919Z,99951.48
2023-05-21T14:24:28.956Z,99948.83
2023-05-21T14:27:00.682Z,99943.97
2023-05-21T14:29:33.416Z,99940.86
2023-05-21T14:32:05.296Z,99944.00
2023-05-21T14:34:38.659Z,99950.67
2023-05-21T14:37:10.547Z,99947.13
2023-05-21T14:39:46.014Z,99950.69
2023-05-21T14:42:17.808Z,99950.27
2023-05-21T14:44:49.709Z,99952.48
2023-05-21T14:47:21.557Z,99947.14
2023-05-21T14:49:53.354Z,99953.36
2023-05-21T14:52:27.872Z,99947.61
2023-05-21T14:55:01.561Z,99944.48
2023-05-21T14:57:35.302Z,99936.05
2023-05-21T15:00:08.839Z,99937.83
2023-05-21T15:02:44.123Z,99947.17
2023-05-21T15:05:16.102Z,99943.63
2023-05-21T15:07:48.435Z,99943.64
2023-05-21T15:10:20.179Z,99943.20
2023-05-21T15:12:52.150Z,99940.95
2023-05-21T15:15:24.039Z,99948.51
2023-05-21T15:17:57.525Z,99951.64
2023-05-21T15:20:29.644Z,99956.55
2023-05-21T15:25:35.082Z,99964.53
2023-05-21T15:28:07.206Z,99968.09
2023-05-21T15:30:39.091Z,99968.08
2023-05-21T15:33:11.341Z,99966.28
2023-05-21T15:35:43.676Z,99972.89
2023-05-21T15:38:15.985Z,99970.21
2023-05-21T15:40:48.881Z,99982.17
2023-05-21T15:43:20.782Z,99978.17
2023-05-21T15:45:52.420Z,99977.23
2023-05-21T15:48:24.467Z,99971.91
2023-05-21T15:50:56.609Z,99978.05
2023-05-21T15:53:28.431Z,99977.59
2023-05-21T15:56:00.327Z,99985.08
2023-05-21T15:58:32.565Z,99989.48
2023-05-21T16:01:04.577Z,99988.51
2023-05-21T16:03:37.035Z,100001.30
2023-05-21T16:06:10.576Z,100003.89
2023-05-21T16:08:43.063Z,100017.13
2023-05-21T16:11:15.087Z,100019.74
2023-05-21T16:13:46.927Z,100021.42
2023-05-21T16:16:18.764Z,100020.03
2023-05-21T16:18:50.930Z,100014.65
2023-05-21T16:21:22.806Z,100022.55
2023-05-21T16:23:54.739Z,100023.83
2023-05-21T16:26:26.619Z,100016.22
2023-05-21T16:28:58.937Z,100014.33
2023-05-21T16:31:31.324Z,100012.47
2023-05-21T16:34:03.077Z,100026.48
2023-05-21T16:36:35.504Z,100029.93
2023-05-21T16:39:07.723Z,100035.98
2023-05-21T16:41:39.753Z,100041.17
2023-05-21T16:44:11.809Z,100057.50
2023-05-21T16:46:43.890Z,100060.95
2023-05-21T16:49:15.889Z,100070.16
2023-05-21T16:51:47.892Z,100072.22
2023-05-21T16:54:19.701Z,100073.08
2023-05-21T16:56:51.529Z,100077.48
2023-05-21T16:59:23.295Z,100071.23
2023-05-21T17:01:55.028Z,100081.63
2023-05-21T17:04:26.817Z,100095.58
2023-05-21T17:06:58.729Z,100090.11
2023-05-21T17:09:30.535Z,100083.40
2023-05-21T17:12:02.246Z,100098.67
2023-05-21T17:14:35.812Z,100098.98
2023-05-21T17:17:08.034Z,100102.38
2023-05-21T17:19:39.969Z,100098.77
2023-05-21T17:22:11.793Z,100087.99
2023-05-21T17:24:43.894Z,100087.87
2023-05-21T17:27:16.529Z,100085.50
2023-05-21T17:29:48.293Z,100092.94
2023-05-21T17:32:21.145Z,100084.85
2023-05-21T17:34:53.967Z,100078.91
2023-05-21T17:37:25.730Z,100085.37
2023-05-21T17:39:58.018Z,100089.72
2023-05-21T17:42:29.720Z,100081.34
2023-05-21T17:45:01.519Z,100088.42
2023-05-21T17:47:34.676Z,100086.19
2023-05-21T17:50:07.705Z,100082.62
2023-05-21T17:52:40.013Z,100081.30
2023-05-21T17:55:11.941Z,100072.48
2023-05-21T17:57:43.670Z,100074.00
2023-05-21T18:00:15.682Z,100081.20
2023-05-21T18:02:46.697Z,100085.03
2023-05-21T18:05:18.966Z,100082.05
2023-05-21T18:07:50.964Z,100080.01
2023-05-21T18:10:22.838Z,100077.45
2023-05-21T18:12:54.865Z,100068.67
2023-05-21T18:15:26.592Z,100063.85
2023-05-21T18:17:58.403Z,100063.22
2023-05-21T18:20:30.311Z,100064.89
2023-05-21T18:23:02.027Z,100057.77
2023-05-21T18:25:35.872Z,100060.41
2023-05-21T18:28:08.173Z,100056.44
2023-05-21T18:30:40.311Z,100061.30
2023-05-21T18:33:15.422Z,100060.78
2023-05-21T18:35:47.416Z,100053.60
2023-05-21T18:38:19.185Z,100050.05
2023-05-21T18:40:52.753Z,100048.66
2023-05-21T18:43:25.323Z,100051.20
2023-05-21T18:45:57.494Z,100043.16
2023-05-21T18:48:29.362Z,100040.45
2023-05-21T18:51:01.699Z,100035.98
2023-05-21T18:53:33.582Z,100043.80
2023-05-21T18:56:07.158Z,100040.62
2023-05-21T18:58:38.948Z,100036.07
2023-05-21T19:01:11.040Z,100032.52
2023-05-21T19:03:43.066Z,100031.23
2023-05-21T19:06:14.801Z,100024.58
2023-05-21T19:08:46.750Z,100020.58
2023-05-21T19:11:19.058Z,100022.27
2023-05-21T19:13:51.227Z,100018.75
2023-05-21T19:16:23.054Z,100017.73
2023-05-21T19:18:54.913Z,100021.18
2023-05-21T19:21:26.791Z,100021.99
2023-05-21T19:23:58.593Z,100015.35
2023-05-21T19:26:30.640Z,100010.98
2023-05-21T19:29:02.353Z,100007.90
2023-05-21T19:31:34.256Z,100005.66
2023-05-21T19:34:07.677Z,100002.61
2023-05-21T19:36:51.961Z,100000.44
2023-05-21T19:39:13.495Z,99998.20
2023-05-21T19:41:45.357Z,100001.80
2023-05-21T19:44:17.504Z,99997.88
2023-05-21T19:46:50.098Z,99996.59
2023-05-21T19:49:21.826Z,99994.45
2023-05-21T19:51:54.958Z,99993.09
2023-05-21T19:54:27.821Z,99992.25
2023-05-21T19:56:59.606Z,99994.52
2023-05-21T19:59:31.636Z,99993.13
2023-05-21T20:02:03.988Z,99994.02
2023-05-21T20:04:36.311Z,99990.45
2023-05-21T20:07:08.157Z,99989.64
2023-05-21T20:09:40.786Z,99985.27
2023-05-21T20:12:12.589Z,99993.67
2023-05-21T20:14:46.263Z,99984.05
2023-05-21T20:17:21.281Z,99978.77
2023-05-21T20:19:53.145Z,99985.84
2023-05-21T20:22:24.835Z,99986.32
2023-05-21T20:24:56.636Z,99985.50
2023-05-21T20:27:28.588Z,99980.22
2023-05-21T20:30:00.296Z,99977.10
2023-05-21T20:32:32.842Z,99976.66
2023-05-21T20:35:05.207Z,99973.03
2023-05-21T20:37:37.014Z,99968.50
2023-05-21T20:40:11.696Z,99967.95
2023-05-21T20:42:45.255Z,99963.11
2023-05-21T20:45:17.269Z,99956.06
2023-05-21T20:47:50.258Z,99958.30
2023-05-21T20:50:23.878Z,99964.73
2023-05-21T20:52:55.866Z,99959.78
2023-05-21T20:55:27.610Z,99960.22
2023-05-21T20:57:59.481Z,99965.48
2023-05-21T21:00:31.937Z,99963.34
2023-05-21T21:03:04.124Z,99963.34
2023-05-21T21:05:36.010Z,99960.12
2023-05-21T21:08:08.428Z,99960.09
2023-05-21T21:10:42.587Z,99965.48
2023-05-21T21:13:15.285Z,99968.12
2023-05-21T21:15:47.111Z,99963.34
2023-05-21T21:18:19.088Z,99955.78
2023-05-21T21:20:51.618Z,99963.31
2023-05-21T21:23:25.412Z,99959.34
2023-05-21T21:25:57.795Z,99954.06
2023-05-21T21:28:29.877Z,99949.18
2023-05-21T21:31:01.748Z,99950.47
2023-05-21T21:33:33.959Z,99947.75
2023-05-21T21:36:06.720Z,99950.39
2023-05-21T21:38:38.565Z,99947.28
2023-05-21T21:41:10.454Z,99945.45
2023-05-21T21:43:42.352Z,99948.56
2023-05-21T21:46:14.385Z,99945.96
2023-05-21T21:48:46.307Z,99941.96
2023-05-21T21:51:18.344Z,99939.72
2023-05-21T21:53:50.796Z,99947.17
2023-05-21T21:56:22.809Z,99947.17
2023-05-21T21:58:54.584Z,99948.46
2023-05-21T22:01:26.566Z,99949.30
2023-05-21T22:03:58.473Z,99939.62
2023-05-21T22:06:30.186Z,99940.87
2023-05-21T22:09:02.798Z,99945.68
2023-05-21T22:11:34.676Z,99943.00
2023-05-21T22:14:06.940Z,99938.56
2023-05-21T22:16:39.351Z,99938.16
2023-05-21T22:19:13.090Z,99931.08
2023-05-21T22:21:46.635Z,99928.91
2023-05-21T22:24:31.549Z,99935.08
2023-05-21T22:26:51.989Z,99936.80
2023-05-21T22:29:23.987Z,99931.89
2023-05-21T22:31:55.907Z,99930.53
2023-05-21T22:34:27.859Z,99923.45
2023-05-21T22:36:59.658Z,99924.23
2023-05-21T22:39:31.664Z,99917.59
2023-05-21T22:42:03.682Z,99919.31
2023-05-21T22:44:35.973Z,99914.40
2023-05-21T22:47:09.595Z,99917.04
2023-05-21T22:49:41.766Z,99913.11
2023-05-21T22:52:14.770Z,99910.55
2023-05-21T22:54:46.530Z,99910.07
2023-05-21T22:57:18.704Z,99914.91
2023-05-21T22:59:50.599Z,99917.11
2023-05-21T23:02:22.614Z,99912.67
2023-05-21T23:04:54.758Z,99912.27
2023-05-21T23:07:26.510Z,99913.19
2023-05-21T23:09:58.260Z,99918.50
2023-05-21T23:12:30.040Z,99917.15
2023-05-21T23:15:03.657Z,99917.48
2023-05-21T23:17:36.148Z,99920.45
2023-05-21T23:20:09.327Z,99920.02
2023-05-21T23:22:41.198Z,99913.01
2023-05-21T23:25:13.095Z,99911.61
2023-05-21T23:27:45.530Z,99911.55
2023-05-21T23:30:17.821Z,99906.73
2023-05-21T23:32:49.679Z,99908.53
2023-05-21T23:35:21.617Z,99910.73
2023-05-21T23:37:53.544Z,99910.77
2023-05-21T23:40:25.287Z,99912.53
2023-05-21T23:42:57.210Z,99908.09
2023-05-21T23:45:28.978Z,99908.46
2023-05-21T23:48:00.767Z,99898.70
2023-05-21T23:50:33.149Z,99892.98
2023-05-21T23:53:05.307Z,99892.58
2023-05-21T23:55:37.265Z,99895.26
2023-05-21T23:58:09.119Z,99889.09
